createdAt,value
2023-04-18T00:01:58.958Z,100.00
2023-04-18T00:07:06.920Z,100.00
2023-04-18T00:12:15.853Z,100.00
2023-04-18T00:18:13.666Z,99.99
2023-04-18T00:23:24.654Z,99.95
2023-04-18T00:28:32.471Z,99.89
2023-04-18T00:33:40.267Z,99.75
2023-04-18T00:38:51.663Z,99.38
2023-04-18T00:43:59.953Z,99.26
2023-04-18T00:49:07.814Z,99.43
2023-04-18T00:54:15.790Z,98.79
2023-04-18T00:59:23.973Z,98.52
2023-04-18T01:04:32.265Z,98.40
2023-04-18T01:09:40.894Z,98.05
2023-04-18T01:14:48.162Z,97.89
2023-04-18T01:25:22.623Z,97.47
2023-04-18T01:30:30.316Z,97.84
2023-04-18T01:35:37.927Z,97.63
2023-04-18T01:40:45.929Z,97.72
2023-04-18T01:45:53.644Z,98.17
2023-04-18T01:51:01.363Z,97.94
2023-04-18T01:56:10.505Z,98.21
2023-04-18T02:01:18.688Z,98.47
2023-04-18T02:06:26.358Z,98.30
2023-04-18T02:11:34.516Z,98.53
2023-04-18T02:16:41.995Z,98.53
2023-04-18T02:21:49.496Z,98.96
2023-04-18T02:26:57.222Z,98.92
2023-04-18T02:32:05.420Z,98.97
2023-04-18T02:37:13.132Z,99.17
2023-04-18T02:42:20.849Z,99.58
2023-04-18T02:53:08.582Z,99.55
2023-04-18T02:58:16.773Z,99.61
2023-04-18T03:03:25.225Z,99.36
2023-04-18T03:08:33.079Z,99.33
2023-04-18T03:13:40.757Z,99.42
2023-04-18T03:18:48.254Z,99.38
2023-04-18T03:23:55.736Z,99.23
2023-04-18T03:29:03.256Z,99.22
2023-04-18T03:34:11.098Z,99.31
2023-04-18T03:39:19.107Z,99.05
2023-04-18T03:44:26.856Z,98.63
2023-04-18T03:49:34.991Z,98.35
2023-04-18T03:54:43.105Z,98.42
2023-04-18T03:59:51.462Z,97.98
2023-04-18T04:04:59.417Z,97.25
2023-04-18T04:10:08.719Z,97.05
2023-04-18T04:15:16.713Z,96.79
2023-04-18T04:20:26.115Z,96.44
2023-04-18T04:25:34.497Z,96.14
2023-04-18T04:30:44.335Z,95.50
2023-04-18T04:35:52.684Z,95.77
2023-04-18T04:41:00.917Z,95.58
2023-04-18T04:46:09.281Z,95.01
2023-04-18T04:51:17.491Z,95.00
2023-04-18T04:56:26.452Z,94.70
2023-04-18T05:01:34.518Z,94.50
2023-04-18T05:06:42.715Z,94.43
2023-04-18T05:11:50.920Z,94.22
2023-04-18T05:17:00.528Z,94.07
2023-04-18T05:22:08.803Z,94.01
2023-04-18T05:27:18.189Z,93.61
2023-04-18T05:32:26.473Z,93.69
2023-04-18T05:37:34.404Z,93.50
2023-04-18T05:42:42.358Z,93.35
2023-04-18T05:47:49.958Z,92.89
2023-04-18T05:52:59.475Z,92.39
2023-04-18T05:58:07.077Z,91.99
2023-04-18T06:03:14.624Z,91.10
2023-04-18T06:08:22.141Z,91.29
2023-04-18T06:13:30.013Z,90.82
2023-04-18T06:18:37.662Z,90.47
2023-04-18T06:23:45.180Z,90.28
2023-04-18T06:28:52.960Z,89.48
2023-04-18T06:34:00.590Z,88.84
2023-04-18T06:39:08.532Z,89.09
2023-04-18T06:44:16.043Z,89.03
2023-04-18T06:49:26.388Z,89.30
2023-04-18T06:54:34.541Z,89.18
2023-04-18T06:59:42.570Z,88.59
2023-04-18T07:04:50.763Z,88.36
2023-04-18T07:09:58.276Z,87.31
2023-04-18T07:15:06.390Z,87.35
2023-04-18T07:20:14.842Z,87.38
2023-04-18T07:25:22.541Z,86.88
2023-04-18T07:30:30.342Z,85.96
2023-04-18T07:35:40.723Z,84.36
2023-04-18T07:40:48.748Z,82.80
2023-04-18T07:45:57.093Z,82.84
2023-04-18T07:51:05.368Z,82.98
2023-04-18T07:56:14.662Z,80.94
2023-04-18T08:01:24.993Z,80.99
2023-04-18T08:06:34.907Z,79.48
2023-04-18T08:11:43.828Z,78.81
2023-04-18T08:16:51.374Z,78.42
2023-04-18T08:22:12.848Z,77.68
2023-04-18T08:27:20.849Z,76.75
2023-04-18T08:32:29.368Z,75.75
2023-04-18T08:37:36.962Z,75.08
2023-04-18T08:42:46.372Z,75.30
2023-04-18T08:47:54.115Z,76.04
2023-04-18T08:53:03.192Z,73.66
2023-04-18T08:58:12.637Z,72.85
2023-04-18T09:03:35.704Z,72.98
2023-04-18T09:08:45.250Z,71.13
2023-04-18T09:13:53.598Z,69.24
2023-04-18T09:19:18.913Z,69.06
2023-04-18T09:24:28.892Z,68.45
2023-04-18T09:29:52.745Z,66.19
2023-04-18T09:35:05.054Z,64.80
2023-04-18T09:40:21.729Z,64.75
2023-04-18T09:45:29.485Z,62.89
2023-04-18T09:50:40.463Z,62.48
2023-04-18T09:55:51.376Z,62.86
2023-04-18T10:01:00.329Z,62.02
2023-04-18T10:06:09.466Z,60.04
2023-04-18T10:11:18.650Z,60.29
2023-04-18T10:16:27.954Z,60.70
2023-04-18T10:21:35.912Z,59.15
2023-04-18T10:26:50.575Z,56.95
2023-04-18T10:31:58.405Z,58.03
2023-04-18T10:37:09.178Z,57.76
2023-04-18T10:42:16.580Z,55.95
2023-04-18T10:53:20.926Z,56.06
2023-04-18T10:58:25.445Z,56.57
2023-04-18T11:03:34.191Z,57.26
2023-04-18T11:08:38.798Z,57.07
2023-04-18T11:13:56.366Z,55.50
2023-04-18T11:19:01.018Z,56.49
2023-04-18T11:24:06.291Z,56.54
2023-04-18T11:29:10.401Z,54.99
2023-04-18T11:34:15.397Z,53.85
2023-04-18T11:39:19.951Z,54.70
2023-04-18T11:44:25.696Z,54.69
2023-04-18T11:49:32.615Z,54.42
2023-04-18T11:54:42.089Z,52.21
2023-04-18T11:59:50.643Z,53.54
2023-04-18T12:04:56.998Z,53.13
2023-04-18T12:10:00.579Z,51.61
2023-04-18T12:15:09.349Z,49.18
2023-04-18T12:20:15.563Z,50.31
2023-04-18T12:25:27.427Z,50.04
2023-04-18T12:30:35.969Z,52.15
2023-04-18T12:35:42.451Z,48.47
2023-04-18T12:40:46.599Z,46.62
2023-04-18T12:45:50.753Z,46.33
2023-04-18T12:54:07.235Z,47.88
2023-04-18T12:59:14.991Z,49.19
2023-04-18T13:04:23.322Z,49.89
2023-04-18T13:09:31.808Z,49.74
2023-04-18T13:14:39.566Z,49.81
2023-04-18T13:19:46.616Z,50.26
2023-04-18T13:24:53.906Z,49.98
2023-04-18T13:30:01.559Z,50.53
2023-04-18T13:35:09.995Z,50.21
2023-04-18T13:40:17.318Z,49.10
2023-04-18T13:45:24.402Z,48.46
2023-04-18T13:50:31.717Z,49.90
2023-04-18T13:55:39.041Z,49.74
2023-04-18T14:00:46.372Z,50.01
2023-04-18T14:05:53.657Z,50.54
2023-04-18T14:11:00.855Z,50.97
2023-04-18T14:16:09.988Z,49.91
2023-04-18T14:21:17.125Z,49.06
2023-04-18T14:26:24.370Z,52.19
2023-04-18T14:31:31.583Z,53.57
2023-04-18T14:36:39.361Z,54.17
2023-04-18T14:41:46.842Z,54.31
2023-04-18T14:46:54.311Z,53.95
2023-04-18T14:52:01.643Z,52.63
2023-04-18T14:57:10.528Z,52.51
2023-04-18T15:02:18.241Z,51.89
2023-04-18T15:07:25.875Z,50.63
2023-04-18T15:12:33.822Z,49.58
2023-04-18T15:17:41.611Z,49.99
2023-04-18T15:22:49.189Z,50.33
2023-04-18T15:27:56.545Z,51.61
2023-04-18T15:33:03.931Z,51.30
2023-04-18T15:38:11.355Z,50.97
2023-04-18T15:43:18.519Z,52.15
2023-04-18T15:48:27.189Z,53.03
2023-04-18T15:53:34.820Z,54.13
2023-04-18T15:58:42.145Z,54.74
2023-04-18T16:03:49.563Z,55.56
2023-04-18T16:08:57.089Z,56.10
2023-04-18T16:14:04.389Z,56.17
2023-04-18T16:19:11.803Z,55.33
2023-04-18T16:24:19.619Z,55.65
2023-04-18T16:29:27.219Z,55.91
2023-04-18T16:34:34.938Z,56.06
2023-04-18T16:39:42.074Z,56.67
2023-04-18T16:44:49.301Z,56.53
2023-04-18T16:49:56.807Z,56.99
2023-04-18T16:55:04.473Z,57.19
2023-04-18T17:04:38.292Z,58.18
2023-04-18T17:09:46.186Z,58.06
2023-04-18T17:14:53.802Z,58.58
2023-04-18T17:20:01.603Z,58.87
2023-04-18T17:25:10.582Z,58.70
2023-04-18T17:30:18.080Z,59.11
2023-04-18T17:35:25.669Z,59.46
2023-04-18T17:40:33.156Z,59.71
2023-04-18T17:45:41.124Z,60.04
2023-04-18T17:50:48.642Z,60.35
2023-04-18T17:55:59.532Z,60.52
2023-04-18T18:01:14.771Z,60.65
2023-04-18T18:06:22.159Z,61.44
2023-04-18T18:11:29.825Z,62.37
2023-04-18T18:16:38.703Z,63.43
2023-04-18T18:21:47.610Z,64.60
2023-04-18T18:26:55.137Z,65.66
2023-04-18T18:32:03.478Z,66.55
2023-04-18T18:37:12.221Z,67.46
2023-04-18T18:42:19.489Z,67.80
2023-04-18T18:47:26.947Z,68.68
2023-04-18T18:52:34.729Z,69.18
2023-04-18T18:57:42.316Z,69.69
2023-04-18T19:02:49.930Z,70.15
2023-04-18T19:07:57.552Z,70.61
2023-04-18T19:13:05.062Z,70.80
2023-04-18T19:20:55.778Z,71.49
2023-04-18T19:26:03.605Z,72.00
2023-04-18T19:31:10.953Z,71.92
2023-04-18T19:36:18.726Z,72.24
2023-04-18T19:41:26.865Z,72.15
2023-04-18T19:46:34.846Z,71.99
2023-04-18T19:51:42.842Z,71.92
2023-04-18T19:56:52.273Z,70.78
2023-04-18T20:02:02.094Z,69.70
2023-04-18T20:07:12.350Z,69.21
2023-04-18T20:12:19.547Z,68.63
2023-04-18T20:27:43.361Z,67.55
2023-04-18T20:32:47.278Z,66.89
2023-04-18T20:37:51.050Z,65.11
2023-04-18T20:42:57.258Z,65.15
2023-04-18T20:48:01.845Z,68.13
2023-04-18T20:53:05.944Z,71.28
2023-04-18T20:58:09.915Z,72.67
2023-04-18T21:03:14.956Z,73.24
2023-04-18T21:08:19.268Z,74.80
2023-04-18T21:13:23.779Z,76.25
2023-04-18T21:18:27.610Z,77.17
2023-04-18T21:23:31.378Z,77.47
2023-04-18T21:28:51.945Z,78.05
2023-04-18T21:33:57.059Z,78.55
2023-04-18T21:42:27.160Z,79.78
2023-04-18T21:47:35.040Z,80.36
2023-04-18T21:52:42.286Z,81.65
2023-04-18T21:57:49.648Z,82.76
2023-04-18T22:02:57.380Z,83.03
2023-04-18T22:08:05.026Z,84.02
2023-04-18T22:13:12.838Z,85.71
2023-04-18T22:18:20.759Z,86.73
2023-04-18T22:23:29.397Z,87.44
2023-04-18T22:28:36.756Z,87.39
2023-04-18T22:33:43.799Z,88.11
2023-04-18T22:38:50.833Z,88.63
2023-04-18T22:43:58.135Z,89.63
2023-04-18T22:49:05.661Z,90.46
2023-04-18T22:54:13.014Z,90.74
2023-04-18T23:05:02.659Z,90.93
2023-04-18T23:10:13.443Z,90.69
2023-04-18T23:15:23.115Z,90.93
2023-04-18T23:20:30.985Z,90.96
2023-04-18T23:25:38.711Z,91.23
2023-04-18T23:30:46.651Z,91.08
2023-04-18T23:35:54.442Z,91.05
2023-04-18T23:41:02.070Z,91.03
2023-04-18T23:46:09.702Z,90.53
2023-04-18T23:54:01.260Z,90.75
2023-04-18T23:59:05.653Z,90.75
